Vremea acum in Calarasi - Romania

Vrei sa afli care e starea vremii acum in Calarasi - Romania? Dorim sa iti furnizam starea vremii pentru Calarasi - Romania. Starea vremii Calarasi - Romania pentru astazi.

Vremea acum in Calarasi

Temperatura: 17 °C

Se simte ca: 17 °C
Innorat: 25 %
Precipitatii: 75 %
Presiune atmosferica: 1017 hPa
Umiditate: 83%
Vizibilitate: 10 km
Vantul bate din NE cu 11.2 km/h

Evolutia vremii in Calarasi pe ore

Ora: 18:00
Ploi uşoare şi de scurtă durată
Temperatura: 19.4°C
Sansa de precipitatii: 75%
Ora Descriere Temp Se simte Precipitatii Umiditate Vant
00:00Parțial noros14°14°0%90%NE 6.5 KM/H
01:00Parțial noros13.5°13.3°0%90%NNE 6.8 KM/H
02:00Parțial noros13°12.6°0%90%N 7.6 KM/H
03:00Parțial noros12.7°12.3°0%89%NNE 7.6 KM/H
04:00Parțial noros12.5°12°0%89%NNE 7.2 KM/H
05:00Parțial noros12.2°11.7°0%88%NNE 7.2 KM/H
06:00Parțial noros12.8°12.4°0%87%NNE 7.2 KM/H
07:00Parțial noros13.3°13°0%85%NNE 7.2 KM/H
08:00Parțial noros13.9°13.7°0%83%NNE 7.2 KM/H
09:00Parțial noros15.5°15.4°0%77%NE 8.6 KM/H
10:00Parțial noros17.2°17.1°0%71%NE 9.7 KM/H
11:00Parțial noros18.8°18.8°0%66%NE 11.2 KM/H
12:00Parțial noros20°20°0%60%ENE 10.8 KM/H
13:00Parțial noros21.1°21.1°0%55%ENE 10.4 KM/H
14:00Parțial noros22.3°24.5°0%49%ENE 10.1 KM/H
15:00Ploi pe porţiuni în apropiere21.6°21.6°27%51%E 9 KM/H
16:00Parțial noros21°21°55%53%E 7.9 KM/H
17:00Ploi pe porţiuni în apropiere20.3°20.3°82%55%E 6.8 KM/H
18:00Ploi uşoare şi de scurtă durată19.4°19.4°75%59%ESE 6.8 KM/H
19:00Ploi pe porţiuni în apropiere18.5°18.5°69%64%SE 7.2 KM/H
20:00Ploi uşoare şi de scurtă durată17.6°17.6°62%69%SE 7.2 KM/H
21:00Ploi pe porţiuni în apropiere17.1°17.1°64%73%SE 6.5 KM/H
22:00Ploi uşoare şi de scurtă durată16.7°16.7°67%76%SSE 6.1 KM/H
23:00Ploi pe porţiuni în apropiere16.2°16.2°69%79%SSE 5.4 KM/H